Time;durP1;ratioP1;P1;durP2;ratioP2;P2;SDS_P1;SDS_P2;PMS_P1;PMS_P2;Temp;Humidity;BMP_temperature;BMP_pressure;BME280_temperature;BME280_humidity;BME280_pressure;Samples;Min_cycle;Max_cycle;Signal;HPM_P1;HPM_P2
2022/07/09 00:00:57;;;;;;;9.93;6.45;;;14.90;99.90;;;;;;10108083;29;20039;-89
2022/07/09 00:05:58;;;;;;;10.80;6.72;;;14.90;99.90;;;;;;10125965;29;20055;-87
2022/07/09 00:10:58;;;;;;;14.63;7.15;;;14.90;99.90;;;;;;10106822;29;20568;-90
2022/07/09 00:15:59;;;;;;;10.02;6.80;;;14.80;99.90;;;;;;10121411;29;20039;-86
2022/07/09 00:21:00;;;;;;;13.85;7.28;;;14.80;99.90;;;;;;10123555;29;20055;-86
2022/07/09 00:26:00;;;;;;;12.68;6.50;;;14.80;99.90;;;;;;10108629;29;20048;-87
2022/07/09 00:31:01;;;;;;;11.07;6.65;;;14.80;99.90;;;;;;10124807;29;20042;-87
2022/07/09 00:36:02;;;;;;;10.57;6.88;;;14.80;99.90;;;;;;10108855;29;20032;-91
2022/07/09 00:41:02;;;;;;;12.02;6.30;;;14.80;99.90;;;;;;10107145;29;20477;-86
2022/07/09 00:46:03;;;;;;;11.40;6.07;;;14.80;99.90;;;;;;10118969;29;20045;-86
2022/07/09 00:51:04;;;;;;;12.18;6.75;;;14.80;99.90;;;;;;10122005;29;20537;-86
2022/07/09 00:56:06;;;;;;;12.00;6.53;;;14.80;99.90;;;;;;10122345;29;20721;-89
2022/07/09 01:01:06;;;;;;;10.50;6.50;;;14.80;99.90;;;;;;10101658;29;20445;-86
2022/07/09 01:06:07;;;;;;;11.02;6.25;;;14.80;99.90;;;;;;10123606;29;20048;-86
2022/07/09 01:11:08;;;;;;;9.95;6.18;;;14.80;99.90;;;;;;10105525;29;20032;-85
2022/07/09 01:16:14;;;;;;;13.23;6.75;;;14.70;99.90;;;;;;10099849;29;20096;-88
2022/07/09 01:21:15;;;;;;;11.68;6.43;;;14.70;99.90;;;;;;10081976;29;1207637;-90
2022/07/09 01:26:16;;;;;;;11.90;5.80;;;14.70;99.90;;;;;;10122264;29;20607;-88
2022/07/09 01:31:16;;;;;;;12.82;5.53;;;14.60;99.90;;;;;;10101120;29;20032;-86
2022/07/09 01:36:17;;;;;;;7.05;5.78;;;14.60;99.90;;;;;;10107681;29;20157;-86
2022/07/09 01:41:17;;;;;;;10.82;5.78;;;14.50;99.90;;;;;;10125794;29;20041;-87
2022/07/09 01:46:18;;;;;;;12.35;6.97;;;14.50;99.90;;;;;;10111597;29;20036;-90
2022/07/09 01:51:19;;;;;;;11.32;6.07;;;14.30;99.90;;;;;;10130949;29;20040;-87
2022/07/09 01:56:20;;;;;;;12.48;6.80;;;14.20;99.90;;;;;;10130192;29;20036;-86
2022/07/09 02:01:20;;;;;;;11.90;6.53;;;14.10;99.90;;;;;;10129622;29;20037;-86
2022/07/09 02:06:21;;;;;;;14.07;7.15;;;14.10;99.90;;;;;;10111100;29;20570;-90
2022/07/09 02:11:22;;;;;;;13.70;6.85;;;14.10;99.90;;;;;;10115155;29;20398;-87
2022/07/09 02:16:22;;;;;;;13.82;6.97;;;14.10;99.90;;;;;;10105672;29;20073;-94
2022/07/09 02:21:23;;;;;;;12.07;6.70;;;14.10;99.90;;;;;;10115856;29;20041;-87
2022/07/09 02:26:24;;;;;;;14.93;6.80;;;14.10;99.90;;;;;;10126284;29;20139;-87
2022/07/09 02:31:26;;;;;;;12.80;7.05;;;14.00;99.90;;;;;;10127263;29;20037;-87
2022/07/09 02:36:27;;;;;;;11.68;7.60;;;14.00;99.90;;;;;;10130689;29;20039;-87
2022/07/09 02:41:27;;;;;;;14.50;7.80;;;13.80;99.90;;;;;;10112603;29;20493;-88
2022/07/09 02:46:28;;;;;;;11.77;7.00;;;13.80;99.90;;;;;;10129421;29;20509;-87
2022/07/09 02:51:28;;;;;;;13.00;7.78;;;13.70;99.90;;;;;;10128270;29;20032;-86
2022/07/09 02:56:29;;;;;;;13.00;7.93;;;13.60;99.90;;;;;;10110439;29;20028;-87
2022/07/09 03:01:30;;;;;;;13.10;7.57;;;13.50;99.90;;;;;;10112642;29;20040;-93
2022/07/09 03:06:30;;;;;;;17.10;8.43;;;13.40;99.90;;;;;;10129451;29;20044;-90
2022/07/09 03:11:31;;;;;;;13.23;7.68;;;13.50;99.90;;;;;;10111996;29;20028;-88
2022/07/09 03:16:31;;;;;;;11.93;7.30;;;13.60;99.90;;;;;;10109921;29;20029;-86
2022/07/09 03:21:32;;;;;;;12.35;7.10;;;13.70;99.90;;;;;;10126598;29;20053;-86
2022/07/09 03:26:33;;;;;;;11.18;6.35;;;13.80;99.90;;;;;;10111238;29;20045;-91
2022/07/09 03:31:34;;;;;;;14.77;6.38;;;13.90;99.90;;;;;;10107905;29;20028;-88
2022/07/09 03:36:34;;;;;;;14.63;6.65;;;14.00;99.90;;;;;;10111633;29;20033;-87
2022/07/09 03:41:35;;;;;;;16.70;6.80;;;14.00;99.90;;;;;;10105041;29;20037;-87
2022/07/09 03:46:35;;;;;;;15.32;7.82;;;14.10;99.90;;;;;;10121491;29;20051;-91
2022/07/09 03:51:36;;;;;;;12.32;6.18;;;14.20;99.90;;;;;;10116009;29;20040;-86
2022/07/09 03:56:37;;;;;;;10.48;5.18;;;14.20;99.90;;;;;;10104659;29;20044;-88
2022/07/09 04:01:37;;;;;;;10.15;5.45;;;14.20;99.90;;;;;;10103197;29;20020;-87
2022/07/09 04:06:38;;;;;;;11.38;5.28;;;14.30;99.90;;;;;;10108614;29;20135;-87
2022/07/09 04:11:39;;;;;;;11.15;4.80;;;14.30;99.90;;;;;;10110098;29;20110;-87
2022/07/09 04:16:40;;;;;;;9.65;5.30;;;14.40;99.90;;;;;;10109978;29;20119;-86
2022/07/09 04:21:40;;;;;;;10.77;6.00;;;14.40;99.90;;;;;;10107849;29;20466;-88
2022/07/09 04:26:44;;;;;;;7.65;5.43;;;14.50;99.90;;;;;;10107448;29;20044;-90
2022/07/09 04:31:45;;;;;;;13.40;5.43;;;14.60;99.90;;;;;;10104995;29;20037;-88
2022/07/09 04:36:46;;;;;;;12.82;6.15;;;14.60;99.90;;;;;;10110493;29;20052;-87
2022/07/09 04:41:46;;;;;;;9.15;5.35;;;14.70;99.90;;;;;;10123905;29;20516;-91
2022/07/09 04:46:47;;;;;;;10.18;5.15;;;14.70;99.90;;;;;;10108054;29;20401;-88
2022/07/09 04:51:47;;;;;;;18.20;5.75;;;14.80;99.90;;;;;;10111347;29;20119;-92
2022/07/09 04:56:48;;;;;;;11.00;5.43;;;14.80;99.90;;;;;;10112427;29;20393;-86
2022/07/09 05:01:49;;;;;;;10.35;5.45;;;14.90;99.90;;;;;;10126027;29;20041;-92
2022/07/09 05:06:50;;;;;;;11.48;5.28;;;15.00;99.90;;;;;;10111165;29;20199;-88
2022/07/09 05:11:51;;;;;;;10.80;5.10;;;15.10;99.90;;;;;;10125471;29;20149;-92
2022/07/09 05:16:51;;;;;;;10.75;5.28;;;15.10;99.90;;;;;;10119795;29;20044;-86
2022/07/09 05:21:52;;;;;;;10.48;5.45;;;15.20;99.90;;;;;;10131362;29;20132;-91
2022/07/09 05:26:53;;;;;;;13.00;6.25;;;15.30;99.90;;;;;;10109508;29;20060;-87
2022/07/09 05:31:53;;;;;;;10.43;5.45;;;15.40;99.90;;;;;;10125383;29;20385;-87
2022/07/09 05:36:57;;;;;;;10.38;5.63;;;15.50;99.90;;;;;;10144014;23;20627;-87
2022/07/09 05:41:58;;;;;;;9.90;5.70;;;15.60;99.90;;;;;;10134635;29;20028;-87
2022/07/09 05:46:59;;;;;;;11.40;5.00;;;15.70;99.90;;;;;;10115403;29;20049;-89
2022/07/09 05:52:00;;;;;;;12.50;5.38;;;15.70;99.90;;;;;;10110971;29;20040;-88
2022/07/09 05:57:00;;;;;;;9.23;5.32;;;15.70;99.90;;;;;;10123130;29;20648;-88
2022/07/09 06:02:02;;;;;;;10.63;4.82;;;15.70;99.90;;;;;;10105121;29;20028;-86
2022/07/09 06:07:03;;;;;;;13.05;5.20;;;15.90;99.90;;;;;;10130336;29;20033;-87
2022/07/09 06:12:36;;;;;;;10.80;4.88;;;16.00;99.90;;;;;;10074243;29;20041;-88
2022/07/09 06:17:37;;;;;;;8.15;4.55;;;16.40;99.90;;;;;;10067993;29;20198;-88
2022/07/09 06:22:38;;;;;;;7.38;4.30;;;16.50;99.90;;;;;;10076943;29;20644;-87
2022/07/09 06:27:40;;;;;;;9.50;5.43;;;16.70;99.90;;;;;;10073995;29;20145;-86
2022/07/09 06:32:40;;;;;;;5.13;4.22;;;16.80;99.90;;;;;;10088891;29;20060;-83
2022/07/09 06:37:44;;;;;;;11.93;4.97;;;16.90;99.90;;;;;;10078519;29;20033;-86
2022/07/09 06:42:45;;;;;;;7.57;3.22;;;17.00;99.90;;;;;;10077758;29;20049;-85
2022/07/09 06:47:45;;;;;;;7.13;3.50;;;17.20;99.90;;;;;;10091362;29;20448;-87
2022/07/09 06:52:46;;;;;;;7.10;3.67;;;17.70;99.90;;;;;;10088386;29;20498;-85
2022/07/09 06:57:47;;;;;;;11.10;3.97;;;17.90;99.90;;;;;;10073736;29;20040;-82
2022/07/09 07:02:48;;;;;;;8.10;3.42;;;17.90;99.90;;;;;;10125142;23;20209;-83
2022/07/09 07:07:49;;;;;;;6.68;3.97;;;18.00;99.90;;;;;;10125305;29;20036;-84
2022/07/09 07:12:50;;;;;;;7.95;3.72;;;18.20;99.90;;;;;;10110351;29;20059;-84
2022/07/09 07:17:50;;;;;;;6.70;3.28;;;18.70;99.90;;;;;;10124503;29;20132;-88
2022/07/09 07:23:16;;;;;;;7.18;4.28;;;19.00;99.90;;;;;;10120201;29;20052;-84
2022/07/09 07:28:43;;;;;;;6.20;3.72;;;19.00;99.90;;;;;;10099370;29;20025;-83
2022/07/09 07:33:47;;;;;;;7.28;4.07;;;19.20;99.90;;;;;;10098636;29;20087;-85
2022/07/09 07:39:01;;;;;;;7.57;4.20;;;19.60;99.90;;;;;;10104277;29;20496;-86
2022/07/09 07:44:02;;;;;;;8.18;3.97;;;19.50;99.90;;;;;;10108905;29;20051;-85
2022/07/09 07:49:03;;;;;;;5.25;3.45;;;19.50;99.90;;;;;;10091205;29;20032;-85
2022/07/09 07:54:03;;;;;;;8.10;3.80;;;20.80;99.90;;;;;;10112941;29;20393;-89
2022/07/09 07:59:04;;;;;;;7.68;3.35;;;21.70;99.90;;;;;;10099058;29;20385;-83
2022/07/09 08:04:04;;;;;;;5.65;3.22;;;20.80;99.90;;;;;;10099948;29;20056;-84
2022/07/09 08:09:05;;;;;;;5.63;3.72;;;19.90;99.90;;;;;;10114842;29;20041;-88
2022/07/09 08:14:06;;;;;;;6.82;4.60;;;19.60;99.90;;;;;;10108953;29;20037;-87
2022/07/09 08:19:07;;;;;;;9.70;6.97;;;19.20;99.90;;;;;;10119954;29;20032;-88
2022/07/09 08:24:08;;;;;;;13.73;8.35;;;19.10;99.90;;;;;;10124795;29;20044;-86
2022/07/09 08:29:08;;;;;;;11.98;8.07;;;20.00;99.90;;;;;;10123119;29;20084;-87
2022/07/09 08:34:09;;;;;;;11.32;9.32;;;19.80;99.90;;;;;;10102575;29;20035;-87
2022/07/09 08:39:10;;;;;;;13.02;7.88;;;19.20;99.90;;;;;;10119968;29;20035;-84
2022/07/09 08:44:11;;;;;;;10.73;7.22;;;18.90;99.90;;;;;;10122816;29;20072;-89
2022/07/09 08:49:14;;;;;;;16.80;10.45;;;18.90;99.90;;;;;;10121574;29;20017;-85
2022/07/09 08:54:15;;;;;;;11.23;7.53;;;19.00;99.90;;;;;;10098070;29;20060;-85
2022/07/09 08:59:16;;;;;;;8.13;5.85;;;19.30;99.90;;;;;;10122620;29;20796;-83
2022/07/09 09:04:18;;;;;;;7.95;3.95;;;20.10;99.90;;;;;;10122143;29;20071;-87
2022/07/09 09:09:19;;;;;;;8.95;3.53;;;20.80;99.90;;;;;;10123468;29;20036;-84
2022/07/09 09:14:22;;;;;;;5.88;3.20;;;21.20;99.90;;;;;;10124564;29;20032;-89
2022/07/09 09:19:22;;;;;;;9.13;4.50;;;21.30;99.90;;;;;;10104968;29;20377;-87
2022/07/09 09:24:26;;;;;;;6.28;3.50;;;21.10;99.90;;;;;;10107026;29;20048;-90
2022/07/09 09:29:28;;;;;;;5.03;2.85;;;21.20;99.90;;;;;;10107136;29;20036;-86
2022/07/09 09:34:29;;;;;;;6.18;3.20;;;21.70;99.90;;;;;;10103855;29;20028;-89
2022/07/09 09:39:29;;;;;;;4.90;2.60;;;21.50;98.60;;;;;;10092983;29;20032;-85
2022/07/09 09:44:37;;;;;;;5.47;2.78;;;20.70;97.60;;;;;;10108894;29;20817;-86
2022/07/09 09:49:41;;;;;;;6.50;2.83;;;20.10;99.90;;;;;;10121573;29;20060;-86
2022/07/09 09:54:47;;;;;;;3.70;2.60;;;20.30;99.90;;;;;;10106079;29;20421;-84
2022/07/09 10:00:00;;;;;;;5.13;2.38;;;21.50;99.90;;;;;;10120883;29;20020;-90
2022/07/09 10:05:01;;;;;;;5.43;2.67;;;22.00;97.70;;;;;;10130035;29;20047;-84
2022/07/09 10:10:05;;;;;;;3.65;2.20;;;21.50;94.30;;;;;;10129203;29;20037;-83
2022/07/09 10:15:48;;;;;;;3.50;2.28;;;21.20;94.40;;;;;;10128164;29;20024;-89
2022/07/09 10:21:36;;;;;;;3.58;1.80;;;21.80;97.30;;;;;;9935938;29;20038;-82
2022/07/09 10:38:39;;;;;;;4.63;1.35;;;22.50;89.00;;;;;;10005002;29;20033;-84
2022/07/09 10:43:49;;;;;;;7.45;3.33;;;22.70;83.10;;;;;;10006695;29;20144;-86
2022/07/09 10:49:01;;;;;;;3.78;1.80;;;23.60;83.50;;;;;;10024356;29;20299;-87
2022/07/09 10:54:02;;;;;;;4.05;1.40;;;23.90;77.90;;;;;;10106675;29;20481;-84
2022/07/09 10:59:03;;;;;;;3.05;1.80;;;23.20;79.50;;;;;;10121890;29;20032;-85
2022/07/09 11:04:04;;;;;;;4.85;1.83;;;23.30;78.60;;;;;;10126502;29;20068;-86
2022/07/09 11:09:12;;;;;;;4.30;1.60;;;23.60;77.40;;;;;;10123585;29;20030;-83
2022/07/09 11:14:17;;;;;;;3.50;1.33;;;23.30;76.30;;;;;;10139262;23;20422;-82
2022/07/09 11:19:19;;;;;;;1.35;1.10;;;23.50;75.80;;;;;;10109113;29;20450;-82
2022/07/09 11:24:23;;;;;;;2.70;1.23;;;23.90;75.40;;;;;;10124399;29;20677;-82
2022/07/09 11:29:23;;;;;;;1.98;1.00;;;24.00;72.70;;;;;;10103323;29;20684;-85
2022/07/09 11:35:05;;;;;;;2.05;1.40;;;24.20;69.40;;;;;;10124229;29;20028;-85
2022/07/09 11:40:06;;;;;;;5.72;1.10;;;24.30;66.50;;;;;;10110917;29;20100;-84
2022/07/09 11:45:09;;;;;;;3.85;1.08;;;24.10;66.80;;;;;;10125597;29;20037;-81
2022/07/09 11:50:20;;;;;;;4.53;1.77;;;24.60;67.90;;;;;;10107984;29;20547;-84
2022/07/09 11:56:07;;;;;;;3.53;1.67;;;25.00;67.90;;;;;;10108154;29;20032;-84
2022/07/09 12:01:11;;;;;;;3.65;1.48;;;25.20;64.50;;;;;;10116768;29;20036;-83
2022/07/09 12:06:12;;;;;;;3.15;1.58;;;24.40;68.30;;;;;;10104332;29;20037;-86
2022/07/09 12:11:12;;;;;;;1.48;1.23;;;24.00;69.70;;;;;;10106183;29;20417;-82
2022/07/09 12:16:13;;;;;;;1.88;1.10;;;24.30;70.40;;;;;;10123299;29;20087;-87
2022/07/09 12:21:14;;;;;;;3.15;1.50;;;24.30;66.70;;;;;;10105734;29;20060;-86
2022/07/09 12:26:40;;;;;;;2.95;1.58;;;24.00;67.50;;;;;;10106246;29;20600;-89
2022/07/09 12:31:41;;;;;;;1.88;1.00;;;24.10;68.50;;;;;;10103489;29;20029;-83
2022/07/09 12:36:41;;;;;;;3.05;1.20;;;24.30;68.20;;;;;;10122299;29;20423;-86
2022/07/09 12:41:42;;;;;;;2.05;1.17;;;24.60;64.10;;;;;;10123213;29;20385;-84
2022/07/09 12:46:43;;;;;;;2.83;1.42;;;24.50;64.50;;;;;;10121584;29;20055;-87
2022/07/09 12:51:44;;;;;;;2.55;1.00;;;24.40;69.50;;;;;;10123305;29;20039;-85
2022/07/09 13:09:34;;;;;;;2.08;1.23;;;24.50;62.50;;;;;;11501402;23;20053;-81
2022/07/09 13:15:32;;;;;;;4.40;1.20;;;24.30;64.80;;;;;;10102945;29;20043;-85
2022/07/09 13:33:03;;;;;;;3.08;1.35;;;23.90;65.70;;;;;;10060996;29;20051;-82
2022/07/09 13:38:03;;;;;;;1.77;1.30;;;24.40;65.10;;;;;;10097306;29;20048;-82
2022/07/09 13:43:04;;;;;;;2.08;1.48;;;24.60;63.80;;;;;;10125780;29;20043;-85
2022/07/09 13:48:05;;;;;;;2.28;1.48;;;24.60;62.70;;;;;;10126410;29;20112;-85
2022/07/09 13:53:37;;;;;;;3.35;1.40;;;25.00;60.90;;;;;;10111003;29;20115;-84
2022/07/09 13:58:38;;;;;;;1.65;1.42;;;25.20;60.80;;;;;;10112350;29;20040;-86
2022/07/09 14:03:39;;;;;;;3.75;1.60;;;24.40;59.10;;;;;;10112857;29;20738;-85
2022/07/09 14:08:40;;;;;;;1.98;1.55;;;23.50;62.50;;;;;;10105363;29;20060;-84
2022/07/09 14:13:42;;;;;;;1.90;1.58;;;23.10;64.10;;;;;;10113607;29;20041;-86
2022/07/09 14:18:43;;;;;;;4.25;1.27;;;23.70;64.90;;;;;;10112089;29;20033;-84
2022/07/09 14:23:53;;;;;;;1.63;1.30;;;23.50;63.10;;;;;;10112027;29;20393;-86
2022/07/09 14:34:55;;;;;;;2.13;1.00;;;22.30;64.80;;;;;;10123378;29;20123;-87
2022/07/09 14:39:56;;;;;;;2.30;1.10;;;21.60;66.90;;;;;;10111923;29;20033;-85
2022/07/09 14:45:25;;;;;;;1.92;1.20;;;21.30;68.20;;;;;;10127793;29;20112;-85
2022/07/09 14:51:20;;;;;;;3.35;1.70;;;21.60;69.80;;;;;;10122203;29;20031;-85
2022/07/09 14:56:21;;;;;;;1.85;1.05;;;21.90;68.30;;;;;;10107279;29;20489;-85
2022/07/09 15:01:22;;;;;;;2.00;1.45;;;21.90;67.60;;;;;;10105718;29;20028;-86
2022/07/09 15:06:23;;;;;;;2.13;1.50;;;22.00;69.60;;;;;;10108521;29;20485;-84
2022/07/09 15:17:52;;;;;;;1.40;1.10;;;22.50;68.30;;;;;;10124705;29;20024;-85
2022/07/09 15:23:53;;;;;;;3.60;1.58;;;22.20;66.70;;;;;;10124982;29;20040;-87
2022/07/09 15:34:33;;;;;;;2.88;1.23;;;21.70;68.90;;;;;;9924138;29;20031;-86
2022/07/09 15:57:46;;;;;;;2.33;1.60;;;21.80;69.90;;;;;;10124185;29;20051;-87
2022/07/09 16:09:27;;;;;;;2.42;1.30;;;21.60;71.10;;;;;;10050228;29;20061;-85
2022/07/09 16:14:31;;;;;;;2.70;1.45;;;21.60;69.50;;;;;;10107694;29;20032;-89
2022/07/09 16:36:43;;;;;;;1.75;1.27;;;20.90;73.30;;;;;;10115857;29;20042;-85
2022/07/09 16:41:46;;;;;;;1.60;1.35;;;20.70;73.20;;;;;;10103032;29;20524;-85
2022/07/09 16:46:46;;;;;;;1.92;1.20;;;20.50;74.70;;;;;;10105966;29;20037;-85
2022/07/09 16:51:47;;;;;;;1.70;1.08;;;20.40;74.00;;;;;;10107066;29;20474;-86
2022/07/09 16:56:48;;;;;;;3.60;1.55;;;20.30;74.60;;;;;;10107044;29;20044;-87
2022/07/09 17:01:50;;;;;;;1.70;1.30;;;20.20;74.60;;;;;;10117939;29;20461;-85
2022/07/09 17:06:50;;;;;;;1.52;1.25;;;20.10;73.80;;;;;;10104894;29;20143;-85
2022/07/09 17:11:51;;;;;;;1.40;1.02;;;20.00;75.00;;;;;;10108396;29;20031;-86
2022/07/09 17:16:52;;;;;;;2.50;1.23;;;19.80;73.60;;;;;;10110655;29;20123;-85
2022/07/09 17:21:52;;;;;;;2.78;1.30;;;19.60;74.00;;;;;;10117331;29;20096;-89
2022/07/09 17:26:53;;;;;;;3.03;1.92;;;19.50;75.10;;;;;;10128606;29;20061;-84
2022/07/09 17:31:53;;;;;;;2.00;1.70;;;19.50;76.20;;;;;;10129533;29;20032;-84
2022/07/09 17:36:54;;;;;;;5.05;2.35;;;19.40;77.50;;;;;;10129701;29;20025;-85
2022/07/09 17:41:54;;;;;;;5.90;2.60;;;19.30;78.80;;;;;;10131260;29;20037;-88
2022/07/09 17:46:55;;;;;;;4.97;1.80;;;19.30;78.90;;;;;;10114857;29;20040;-84
2022/07/09 17:51:56;;;;;;;3.03;1.65;;;19.30;77.80;;;;;;10130504;29;20088;-86
2022/07/09 17:56:56;;;;;;;5.47;2.50;;;19.30;77.90;;;;;;10128045;29;20523;-86
2022/07/09 18:01:57;;;;;;;2.95;2.13;;;19.30;78.70;;;;;;10099921;29;20404;-86
2022/07/09 18:06:58;;;;;;;4.35;3.00;;;19.30;77.80;;;;;;10107270;29;20071;-85
2022/07/09 18:11:58;;;;;;;5.97;1.67;;;19.30;78.60;;;;;;10111124;29;20037;-88
2022/07/09 18:16:59;;;;;;;5.03;3.25;;;19.30;78.20;;;;;;10127938;29;20044;-87
2022/07/09 18:21:59;;;;;;;20.83;10.77;;;19.20;79.40;;;;;;10123670;29;20417;-85
2022/07/09 18:27:00;;;;;;;9.13;5.03;;;19.10;81.60;;;;;;10121871;29;20065;-85
2022/07/09 18:32:01;;;;;;;26.33;16.65;;;18.80;85.20;;;;;;10121792;29;20044;-88
2022/07/09 18:37:01;;;;;;;12.40;6.70;;;18.40;86.30;;;;;;10108785;29;20036;-87
2022/07/09 18:42:06;;;;;;;33.97;20.23;;;18.20;84.70;;;;;;10112016;29;20020;-88
2022/07/09 18:47:07;;;;;;;14.48;8.73;;;17.90;87.90;;;;;;10127880;29;20043;-85
2022/07/09 18:52:07;;;;;;;17.30;8.70;;;17.50;89.90;;;;;;10110885;29;20448;-88
2022/07/09 18:57:08;;;;;;;12.82;7.57;;;17.20;91.20;;;;;;10129827;29;20039;-88
2022/07/09 19:02:08;;;;;;;16.15;7.97;;;16.90;92.20;;;;;;10107494;29;20029;-85
2022/07/09 19:07:09;;;;;;;11.88;7.03;;;16.70;93.40;;;;;;10109211;29;20115;-85
2022/07/09 19:12:10;;;;;;;16.80;7.07;;;16.30;95.40;;;;;;10127118;29;20843;-84
2022/07/09 19:17:10;;;;;;;13.15;6.20;;;16.10;97.20;;;;;;10120351;29;20044;-84
2022/07/09 19:22:11;;;;;;;11.70;4.32;;;15.80;99.10;;;;;;10108252;29;20671;-84
2022/07/09 19:27:12;;;;;;;18.17;11.45;;;15.70;99.90;;;;;;10114578;29;20489;-85
2022/07/09 19:37:33;;;;;;;16.10;11.02;;;15.30;99.90;;;;;;10112425;29;20493;-85
2022/07/09 19:42:33;;;;;;;11.55;6.45;;;15.30;99.90;;;;;;10099243;29;20031;-84
2022/07/09 19:48:00;;;;;;;64.05;8.68;;;15.30;99.90;;;;;;10111193;29;20042;-84
2022/07/09 19:53:01;;;;;;;20.90;12.57;;;15.30;99.90;;;;;;10102263;29;20116;-86
2022/07/09 20:04:04;;;;;;;10.27;6.38;;;14.80;99.90;;;;;;10120709;29;20037;-87
2022/07/09 20:09:05;;;;;;;6.60;4.57;;;14.60;99.90;;;;;;10106533;29;20147;-85
2022/07/09 20:14:06;;;;;;;14.82;8.23;;;14.40;99.90;;;;;;10093761;29;20049;-87
2022/07/09 20:19:06;;;;;;;48.47;28.90;;;14.50;99.90;;;;;;10127414;29;20086;-85
2022/07/09 20:24:07;;;;;;;23.83;13.95;;;14.40;99.90;;;;;;10126020;29;20041;-84
2022/07/09 20:29:07;;;;;;;38.55;24.08;;;14.30;99.90;;;;;;10115792;29;20125;-87
2022/07/09 20:34:09;;;;;;;31.05;16.10;;;14.20;99.90;;;;;;10110790;29;20040;-83
2022/07/09 20:39:10;;;;;;;30.20;18.70;;;14.10;99.90;;;;;;10100506;29;20484;-87
2022/07/09 20:44:10;;;;;;;24.52;14.35;;;13.90;99.90;;;;;;10108868;29;20047;-87
2022/07/09 20:49:13;;;;;;;15.13;9.65;;;13.90;99.90;;;;;;10108798;29;20028;-84
2022/07/09 20:54:14;;;;;;;10.45;5.45;;;13.90;99.90;;;;;;10100621;29;20031;-89
2022/07/09 20:59:15;;;;;;;10.43;5.22;;;14.00;99.90;;;;;;10108177;29;20047;-85
2022/07/09 21:04:15;;;;;;;16.50;10.63;;;14.20;99.90;;;;;;10108156;29;20040;-87
2022/07/09 21:09:16;;;;;;;16.80;10.75;;;14.30;99.90;;;;;;10103930;29;20084;-85
2022/07/09 21:14:17;;;;;;;38.17;24.50;;;14.30;99.90;;;;;;10107771;29;20031;-86
2022/07/09 21:19:17;;;;;;;14.43;7.78;;;14.30;99.90;;;;;;10104162;29;20134;-85
2022/07/09 21:24:51;;;;;;;17.40;9.23;;;14.20;99.90;;;;;;10104948;29;20039;-87
2022/07/09 21:29:52;;;;;;;12.75;7.65;;;14.00;99.90;;;;;;10106928;29;20076;-84
2022/07/09 21:34:58;;;;;;;15.15;9.70;;;14.00;99.90;;;;;;10120776;29;20096;-86
2022/07/09 21:39:59;;;;;;;21.83;12.32;;;13.90;99.90;;;;;;10108563;29;20371;-88
2022/07/09 21:45:00;;;;;;;25.67;14.25;;;13.60;99.90;;;;;;10098333;29;20041;-85
2022/07/09 21:50:02;;;;;;;23.02;11.60;;;13.50;99.90;;;;;;10093018;29;20043;-85
2022/07/09 21:55:11;;;;;;;20.65;11.50;;;13.50;99.90;;;;;;10100651;29;20029;-89
2022/07/09 22:00:15;;;;;;;39.53;21.20;;;13.40;99.90;;;;;;10099221;29;20024;-89
2022/07/09 22:05:16;;;;;;;18.20;9.57;;;13.30;99.90;;;;;;10109249;29;20085;-84
2022/07/09 22:10:16;;;;;;;20.27;9.25;;;13.30;99.90;;;;;;10107277;29;20040;-88
2022/07/09 22:15:17;;;;;;;25.42;12.98;;;13.30;99.90;;;;;;10122233;29;20112;-86
2022/07/09 22:20:18;;;;;;;26.30;13.63;;;13.30;99.90;;;;;;10106652;29;20040;-87
2022/07/09 22:25:19;;;;;;;51.42;23.85;;;13.30;99.90;;;;;;10108582;29;20108;-91
2022/07/09 22:36:17;;;;;;;24.67;14.13;;;13.10;99.90;;;;;;10128229;29;20056;-89
2022/07/09 22:41:36;;;;;;;22.02;12.02;;;13.00;99.90;;;;;;10104798;29;20115;-85
2022/07/09 22:46:38;;;;;;;17.60;10.50;;;13.00;99.90;;;;;;10099924;29;20033;-86
2022/07/09 22:51:39;;;;;;;14.77;9.10;;;13.20;99.90;;;;;;10111479;29;20039;-86
2022/07/09 22:56:39;;;;;;;11.80;7.43;;;13.20;99.90;;;;;;10104896;29;20037;-85
2022/07/09 23:01:40;;;;;;;12.30;7.72;;;13.30;99.90;;;;;;10111708;29;20033;-87
2022/07/09 23:06:45;;;;;;;15.98;8.15;;;13.20;99.90;;;;;;10113148;29;20131;-86
2022/07/09 23:11:46;;;;;;;29.00;11.25;;;13.20;99.90;;;;;;10118771;29;20039;-87
2022/07/09 23:16:47;;;;;;;16.15;8.60;;;13.20;99.90;;;;;;10116126;29;20037;-87
2022/07/09 23:21:48;;;;;;;12.88;8.05;;;13.10;99.90;;;;;;10109597;29;20385;-86
2022/07/09 23:26:49;;;;;;;13.98;8.27;;;13.00;99.90;;;;;;10125682;29;20064;-85
2022/07/09 23:31:49;;;;;;;11.00;7.45;;;12.90;99.90;;;;;;10088356;23;20061;-87
2022/07/09 23:36:50;;;;;;;11.38;7.03;;;12.90;99.90;;;;;;10088908;29;20045;-86
2022/07/09 23:41:51;;;;;;;14.00;8.43;;;12.90;99.90;;;;;;10083358;29;20037;-87
2022/07/09 23:46:52;;;;;;;15.40;8.55;;;12.80;99.90;;;;;;10080576;29;20196;-86
2022/07/09 23:51:52;;;;;;;16.15;9.95;;;12.70;99.90;;;;;;10091759;29;20092;-87
2022/07/09 23:56:53;;;;;;;16.20;8.38;;;12.70;99.90;;;;;;10087061;29;20045;-87
